createdAt,value
2018-06-01T00:00:38.793Z,99450.61
2018-06-01T00:03:06.394Z,99460.33
2018-06-01T00:05:34.070Z,99461.65
2018-06-01T00:08:01.693Z,99471.27
2018-06-01T00:10:29.354Z,99477.08
2018-06-01T00:12:56.901Z,99484.02
2018-06-01T00:15:24.575Z,99467.80
2018-06-01T00:17:52.136Z,99462.80
2018-06-01T00:20:19.809Z,99468.12
2018-06-01T00:22:47.358Z,99469.64
2018-06-01T00:25:15.141Z,99471.30
2018-06-01T00:27:42.710Z,99476.27
2018-06-01T00:30:10.268Z,99471.80
2018-06-01T00:32:37.815Z,99472.36
2018-06-01T00:35:05.469Z,99468.08
2018-06-01T00:37:33.023Z,99467.37
2018-06-01T00:40:00.580Z,99463.70
2018-06-01T00:42:28.140Z,99473.73
2018-06-01T00:44:55.802Z,99472.11
2018-06-01T00:47:23.373Z,99478.03
2018-06-01T00:49:51.033Z,99475.29
2018-06-01T00:52:18.557Z,99478.28
2018-06-01T00:54:58.086Z,99481.98
2018-06-01T00:57:25.613Z,99486.24
2018-06-01T00:59:53.169Z,99485.60
2018-06-01T01:02:20.691Z,99485.20
2018-06-01T01:04:48.263Z,99488.15
2018-06-01T01:07:15.926Z,99487.62
2018-06-01T01:09:43.448Z,99497.42
2018-06-01T01:12:11.053Z,99486.33
2018-06-01T01:14:38.579Z,99482.56
2018-06-01T01:17:06.161Z,99477.08
2018-06-01T01:19:33.717Z,99480.94
2018-06-01T01:22:01.282Z,99468.42
2018-06-01T01:24:28.810Z,99466.91
2018-06-01T01:26:56.386Z,99466.46
2018-06-01T01:29:23.914Z,99457.71
2018-06-01T01:31:56.363Z,99453.77
2018-06-01T01:34:23.887Z,99445.95
2018-06-01T01:36:51.447Z,99442.17
2018-06-01T01:39:19.019Z,99431.19
2018-06-01T01:41:46.644Z,99432.70
2018-06-01T01:44:14.229Z,99418.30
2018-06-01T01:46:41.784Z,99417.06
2018-06-01T01:49:09.330Z,99412.28
2018-06-01T01:51:36.858Z,99420.04
2018-06-01T01:54:04.402Z,99413.55
2018-06-01T01:56:31.937Z,99412.78
2018-06-01T01:58:59.592Z,99411.68
2018-06-01T02:01:27.118Z,99408.86
2018-06-01T02:03:54.674Z,99407.69
2018-06-01T02:06:22.264Z,99398.77
2018-06-01T02:08:49.928Z,99399.03
2018-06-01T02:11:17.451Z,99394.41
2018-06-01T02:13:45.958Z,99402.72
2018-06-01T02:16:13.505Z,99395.97
2018-06-01T02:18:41.057Z,99397.28
2018-06-01T02:21:08.608Z,99388.11
2018-06-01T02:23:36.212Z,99387.86
2018-06-01T02:26:03.737Z,99388.18
2018-06-01T02:28:31.326Z,99386.02
2018-06-01T02:30:58.868Z,99386.28
2018-06-01T02:33:26.446Z,99390.23
2018-06-01T02:35:53.990Z,99381.27
2018-06-01T02:38:21.524Z,99380.36
2018-06-01T02:40:49.128Z,99377.23
2018-06-01T02:43:16.686Z,99371.22
2018-06-01T02:45:44.261Z,99376.87
2018-06-01T02:48:11.802Z,99371.22
2018-06-01T02:50:39.466Z,99370.45
2018-06-01T02:53:07.035Z,99364.65
2018-06-01T02:55:34.590Z,99358.31
2018-06-01T02:58:02.121Z,99365.84
2018-06-01T03:00:29.673Z,99365.14
2018-06-01T03:02:57.263Z,99355.77
2018-06-01T03:05:24.926Z,99357.17
2018-06-01T03:07:52.495Z,99354.44
2018-06-01T03:10:20.055Z,99349.77
2018-06-01T03:12:47.632Z,99348.85
2018-06-01T03:15:16.189Z,99350.27
2018-06-01T03:17:43.830Z,99336.67
2018-06-01T03:20:11.412Z,99340.38
2018-06-01T03:22:38.963Z,99330.95
2018-06-01T03:25:06.515Z,99336.70
2018-06-01T03:27:34.067Z,99339.55
2018-06-01T03:30:02.451Z,99331.17
2018-06-01T03:32:30.018Z,99332.78
2018-06-01T03:34:57.584Z,99332.69
2018-06-01T03:37:25.180Z,99337.26
2018-06-01T03:39:52.703Z,99342.98
2018-06-01T03:42:20.255Z,99337.33
2018-06-01T03:44:47.786Z,99337.64
2018-06-01T03:47:16.510Z,99347.48
2018-06-01T03:49:44.083Z,99348.14
2018-06-01T03:52:11.618Z,99357.20
2018-06-01T03:54:39.188Z,99367.98
2018-06-01T03:57:06.753Z,99366.70
2018-06-01T03:59:34.308Z,99367.70
2018-06-01T04:02:01.846Z,99369.66
2018-06-01T04:04:29.430Z,99373.92
2018-06-01T04:06:57.278Z,99378.97
2018-06-01T04:09:28.756Z,99383.91
2018-06-01T04:11:56.306Z,99388.13
2018-06-01T04:14:23.868Z,99393.57
2018-06-01T04:16:51.410Z,99401.05
2018-06-01T04:19:18.983Z,99406.14
2018-06-01T04:21:46.542Z,99412.70
2018-06-01T04:24:14.091Z,99415.09
2018-06-01T04:26:41.671Z,99424.45
2018-06-01T04:29:09.240Z,99423.89
2018-06-01T04:31:36.779Z,99423.77
2018-06-01T04:34:07.616Z,99420.64
2018-06-01T04:36:35.276Z,99423.42
2018-06-01T04:39:02.840Z,99431.92
2018-06-01T04:41:30.399Z,99431.70
2018-06-01T04:43:57.962Z,99431.09
2018-06-01T04:46:25.509Z,99438.78
2018-06-01T04:48:53.088Z,99436.01
2018-06-01T04:51:20.743Z,99432.88
2018-06-01T04:53:48.269Z,99433.13
2018-06-01T04:56:16.670Z,99440.67
2018-06-01T04:58:44.250Z,99435.73
2018-06-01T05:01:11.801Z,99440.89
2018-06-01T05:03:39.357Z,99444.98
2018-06-01T05:06:06.917Z,99444.47
2018-06-01T05:08:34.434Z,99452.48
2018-06-01T05:11:02.037Z,99457.30
2018-06-01T05:13:29.609Z,99458.69
2018-06-01T05:15:57.163Z,99459.20
2018-06-01T05:18:24.689Z,99463.09
2018-06-01T05:20:52.275Z,99466.87
2018-06-01T05:23:21.914Z,99469.91
2018-06-01T05:25:52.871Z,99462.69
2018-06-01T05:28:24.283Z,99469.34
2018-06-01T05:30:55.283Z,99470.36
2018-06-01T05:33:25.431Z,99467.30
2018-06-01T05:35:53.153Z,99478.38
2018-06-01T05:38:20.689Z,99477.61
2018-06-01T05:40:49.203Z,99476.05
2018-06-01T05:43:16.766Z,99476.66
2018-06-01T05:45:44.362Z,99478.86
2018-06-01T05:48:11.917Z,99489.85
2018-06-01T05:50:39.442Z,99487.85
2018-06-01T05:53:06.994Z,99498.35
2018-06-01T05:55:34.549Z,99498.14
2018-06-01T05:58:02.169Z,99498.87
2018-06-01T06:00:29.853Z,99504.94
2018-06-01T06:02:57.852Z,99499.13
2018-06-01T06:05:25.541Z,99507.47
2018-06-01T06:07:53.108Z,99506.18
2018-06-01T06:10:20.669Z,99503.80
2018-06-01T06:12:48.541Z,99500.13
2018-06-01T06:15:16.098Z,99509.98
2018-06-01T06:17:43.713Z,99521.22
2018-06-01T06:20:11.519Z,99517.38
2018-06-01T06:22:39.174Z,99513.26
2018-06-01T06:25:06.839Z,99519.31
2018-06-01T06:27:35.373Z,99513.87
2018-06-01T06:30:04.329Z,99520.20
2018-06-01T06:32:31.861Z,99519.63
2018-06-01T06:34:59.432Z,99523.61
2018-06-01T06:37:26.958Z,99528.48
2018-06-01T06:39:54.514Z,99532.93
2018-06-01T06:42:22.038Z,99537.40
2018-06-01T06:44:49.588Z,99535.84
2018-06-01T06:47:17.143Z,99533.91
2018-06-01T06:49:44.717Z,99526.25
2018-06-01T06:52:16.069Z,99536.25
2018-06-01T06:54:44.999Z,99528.34
2018-06-01T06:57:13.413Z,99531.34
2018-06-01T06:59:41.007Z,99541.11
2018-06-01T07:02:08.634Z,99540.69
2018-06-01T07:04:36.157Z,99540.39
2018-06-01T07:07:03.714Z,99542.77
2018-06-01T07:09:31.264Z,99539.92
2018-06-01T07:12:02.121Z,99540.70
2018-06-01T07:14:34.711Z,99543.91
2018-06-01T07:17:04.551Z,99547.69
2018-06-01T07:19:34.769Z,99554.88
2018-06-01T07:22:02.623Z,99554.87
2018-06-01T07:24:32.778Z,99553.84
2018-06-01T07:27:00.924Z,99549.38
2018-06-01T07:29:28.460Z,99551.47
2018-06-01T07:31:57.097Z,99551.13
2018-06-01T07:34:24.730Z,99548.55
2018-06-01T07:36:52.237Z,99550.24
2018-06-01T07:39:19.843Z,99554.08
2018-06-01T07:41:50.541Z,99556.12
2018-06-01T07:44:18.109Z,99557.91
2018-06-01T07:46:45.622Z,99560.09
2018-06-01T07:49:13.174Z,99559.16
2018-06-01T07:51:40.713Z,99562.86
2018-06-01T07:54:08.728Z,99564.61
2018-06-01T07:56:36.358Z,99562.05
2018-06-01T07:59:03.930Z,99568.97
2018-06-01T08:01:32.702Z,99566.08
2018-06-01T08:04:00.362Z,99566.92
2018-06-01T08:06:28.015Z,99571.61
2018-06-01T08:08:55.635Z,99560.91
2018-06-01T08:11:23.237Z,99562.86
2018-06-01T08:13:50.898Z,99557.39
2018-06-01T08:16:18.420Z,99563.06
2018-06-01T08:18:46.025Z,99561.67
2018-06-01T08:21:13.579Z,99562.41
2018-06-01T08:23:41.238Z,99563.06
2018-06-01T08:26:08.798Z,99570.78
2018-06-01T08:28:36.321Z,99572.03
2018-06-01T08:31:03.894Z,99565.03
2018-06-01T08:33:31.487Z,99562.86
2018-06-01T08:35:59.142Z,99563.97
2018-06-01T08:38:28.789Z,99568.73
2018-06-01T08:41:00.336Z,99565.73
2018-06-01T08:43:30.511Z,99575.23
2018-06-01T08:46:02.010Z,99570.70
2018-06-01T08:48:30.018Z,99570.84
2018-06-01T08:50:57.873Z,99564.68
2018-06-01T08:53:25.667Z,99570.30
2018-06-01T08:55:54.762Z,99574.78
2018-06-01T08:58:24.277Z,99562.90
2018-06-01T09:00:52.522Z,99584.63
2018-06-01T09:03:22.876Z,99581.53
2018-06-01T09:05:50.763Z,99583.11
2018-06-01T09:08:19.477Z,99584.45
2018-06-01T09:10:47.663Z,99587.94
2018-06-01T09:13:17.218Z,99594.45
2018-06-01T09:15:45.484Z,99593.97
2018-06-01T09:18:15.244Z,99593.08
2018-06-01T09:20:42.802Z,99604.22
2018-06-01T09:25:47.600Z,99595.41
2018-06-01T09:28:15.710Z,99605.82
2018-06-01T09:30:44.935Z,99599.53
2018-06-01T09:33:12.737Z,99606.41
2018-06-01T09:35:41.450Z,99601.78
2018-06-01T09:38:10.108Z,99608.59
2018-06-01T09:40:41.260Z,99603.83
2018-06-01T09:43:09.021Z,99600.47
2018-06-01T09:45:38.931Z,99602.47
2018-06-01T09:48:08.328Z,99599.84
2018-06-01T09:50:36.380Z,99593.78
2018-06-01T09:53:05.165Z,99594.12
2018-06-01T09:55:35.022Z,99586.06
2018-06-01T09:58:03.895Z,99587.64
2018-06-01T10:00:39.417Z,99592.30
2018-06-01T10:03:08.384Z,99588.50
2018-06-01T10:05:36.039Z,99588.73
2018-06-01T10:08:08.693Z,99587.04
2018-06-01T10:10:36.774Z,99585.95
2018-06-01T10:13:06.821Z,99584.05
2018-06-01T10:15:35.642Z,99595.88
2018-06-01T10:18:04.181Z,99597.02
2018-06-01T10:20:36.199Z,99599.38
2018-06-01T10:23:03.951Z,99601.72
2018-06-01T10:25:37.053Z,99594.27
2018-06-01T10:28:04.734Z,99599.31
2018-06-01T10:30:34.537Z,99596.67
2018-06-01T10:36:02.762Z,99593.39
2018-06-01T10:38:32.521Z,99593.42
2018-06-01T10:41:02.759Z,99592.14
2018-06-01T10:43:32.259Z,99600.42
2018-06-01T10:46:00.780Z,99598.84
2018-06-01T10:48:28.481Z,99608.52
2018-06-01T10:50:56.751Z,99615.75
2018-06-01T10:53:25.458Z,99601.91
2018-06-01T10:55:55.866Z,99623.02
2018-06-01T10:58:27.636Z,99628.72
2018-06-01T11:00:56.109Z,99621.05
2018-06-01T11:03:24.718Z,99621.70
2018-06-01T11:05:52.713Z,99625.02
2018-06-01T11:08:22.085Z,99629.84
2018-06-01T11:10:51.773Z,99630.89
2018-06-01T11:13:19.676Z,99628.81
2018-06-01T11:15:49.976Z,99628.16
2018-06-01T11:18:18.165Z,99628.21
2018-06-01T11:20:45.783Z,99627.05
2018-06-01T11:23:16.028Z,99628.81
2018-06-01T11:25:45.836Z,99624.56
2018-06-01T11:28:16.782Z,99622.27
2018-06-01T11:30:45.611Z,99622.36
2018-06-01T11:33:13.246Z,99623.34
2018-06-01T11:35:41.290Z,99613.11
2018-06-01T11:38:10.742Z,99619.70
2018-06-01T11:40:40.644Z,99619.16
2018-06-01T11:43:10.215Z,99614.52
2018-06-01T11:45:39.778Z,99616.30
2018-06-01T11:48:11.230Z,99619.92
2018-06-01T11:50:41.335Z,99615.89
2018-06-01T11:53:09.178Z,99609.92
2018-06-01T11:55:40.011Z,99614.52
2018-06-01T11:58:09.296Z,99602.71
2018-06-01T12:00:39.294Z,99605.64
2018-06-01T12:03:08.142Z,99601.36
2018-06-01T12:05:37.549Z,99599.48
2018-06-01T12:08:06.601Z,99606.91
2018-06-01T12:10:34.754Z,99601.43
2018-06-01T12:13:05.143Z,99595.12
2018-06-01T12:15:34.874Z,99594.33
2018-06-01T12:18:02.584Z,99592.06
2018-06-01T12:20:33.078Z,99595.17
2018-06-01T12:23:03.437Z,99596.17
2018-06-01T12:25:36.398Z,99604.39
2018-06-01T12:28:07.186Z,99593.31
2018-06-01T12:30:37.861Z,99599.58
2018-06-01T12:33:07.353Z,99602.40
2018-06-01T12:35:39.117Z,99601.47
2018-06-01T12:38:08.323Z,99593.77
2018-06-01T12:40:39.751Z,99603.23
2018-06-01T12:43:09.779Z,99605.30
2018-06-01T12:45:40.662Z,99606.30
2018-06-01T12:48:11.510Z,99595.36
2018-06-01T12:50:42.555Z,99600.35
2018-06-01T12:53:13.583Z,99606.72
2018-06-01T12:55:45.889Z,99603.82
2018-06-01T12:58:16.616Z,99603.13
2018-06-01T13:00:49.784Z,99602.15
2018-06-01T13:03:20.326Z,99606.44
2018-06-01T13:05:50.659Z,99604.87
2018-06-01T13:08:21.721Z,99597.41
2018-06-01T13:10:53.779Z,99589.72
2018-06-01T13:13:24.257Z,99587.63
2018-06-01T13:15:55.183Z,99595.44
2018-06-01T13:18:26.335Z,99592.70
2018-06-01T13:20:57.585Z,99585.48
2018-06-01T13:23:28.963Z,99595.31
2018-06-01T13:26:00.839Z,99596.08
2018-06-01T13:28:31.987Z,99591.78
2018-06-01T13:31:03.475Z,99590.64
2018-06-01T13:33:35.910Z,99591.89
2018-06-01T13:36:07.508Z,99584.09
2018-06-01T13:38:38.871Z,99591.38
2018-06-01T13:41:10.456Z,99587.08
2018-06-01T13:43:41.127Z,99590.36
2018-06-01T13:46:12.109Z,99584.70
2018-06-01T13:48:43.507Z,99590.36
2018-06-01T13:51:18.291Z,99586.22
2018-06-01T13:53:47.725Z,99592.61
2018-06-01T13:56:16.676Z,99587.52
2018-06-01T13:58:47.714Z,99585.29
2018-06-01T14:01:18.930Z,99584.56
2018-06-01T14:03:48.420Z,99585.43
2018-06-01T14:06:20.426Z,99589.37
2018-06-01T14:08:51.780Z,99583.39
2018-06-01T14:11:24.583Z,99581.80
2018-06-01T14:13:55.778Z,99582.13
2018-06-01T14:16:26.008Z,99583.03
2018-06-01T14:18:57.611Z,99593.30
2018-06-01T14:21:29.703Z,99590.33
2018-06-01T14:24:00.557Z,99585.23
2018-06-01T14:26:30.872Z,99583.70
2018-06-01T14:29:01.991Z,99587.34
2018-06-01T14:31:32.844Z,99579.28
2018-06-01T14:34:04.046Z,99573.58
2018-06-01T14:36:35.850Z,99578.41
2018-06-01T14:39:07.012Z,99571.88
2018-06-01T14:41:38.609Z,99563.76
2018-06-01T14:44:09.427Z,99564.55
2018-06-01T14:46:41.694Z,99554.61
2018-06-01T14:49:12.977Z,99561.53
2018-06-01T14:51:45.017Z,99563.80
2018-06-01T14:54:15.993Z,99556.45
2018-06-01T14:56:46.980Z,99550.30
2018-06-01T14:59:18.018Z,99548.83
2018-06-01T15:01:47.862Z,99553.50
2018-06-01T15:04:17.747Z,99550.94
2018-06-01T15:06:47.033Z,99551.34
2018-06-01T15:09:17.789Z,99553.13
2018-06-01T15:11:47.344Z,99558.83
2018-06-01T15:14:18.285Z,99552.66
2018-06-01T15:16:50.590Z,99557.92
2018-06-01T15:19:21.586Z,99563.27
2018-06-01T15:21:52.509Z,99559.34
2018-06-01T15:24:22.247Z,99555.49
2018-06-01T15:26:54.296Z,99552.16
2018-06-01T15:29:25.707Z,99556.14
2018-06-01T15:31:57.048Z,99563.14
2018-06-01T15:34:29.506Z,99559.08
2018-06-01T15:36:59.420Z,99555.20
2018-06-01T15:39:29.326Z,99552.06
2018-06-01T15:42:01.034Z,99548.41
2018-06-01T15:44:31.769Z,99549.32
2018-06-01T15:47:03.014Z,99552.71
2018-06-01T15:49:34.189Z,99553.14
2018-06-01T15:52:05.157Z,99550.98
2018-06-01T15:54:35.648Z,99550.16
2018-06-01T15:57:07.268Z,99548.66
2018-06-01T15:59:38.971Z,99550.88
2018-06-01T16:02:09.500Z,99558.90
2018-06-01T16:04:40.025Z,99554.21
2018-06-01T16:07:11.330Z,99552.94
2018-06-01T16:09:41.883Z,99560.25
2018-06-01T16:12:12.648Z,99555.09
2018-06-01T16:14:43.271Z,99557.55
2018-06-01T16:17:14.221Z,99562.45
2018-06-01T16:19:44.613Z,99551.69
2018-06-01T16:22:15.749Z,99546.89
2018-06-01T16:24:45.769Z,99554.11
2018-06-01T16:27:15.810Z,99558.70
2018-06-01T16:29:46.804Z,99558.47
2018-06-01T16:32:17.301Z,99559.28
2018-06-01T16:34:48.106Z,99567.97
2018-06-01T16:37:18.216Z,99562.88
2018-06-01T16:39:49.799Z,99559.64
2018-06-01T16:42:19.040Z,99562.81
2018-06-01T16:44:53.928Z,99563.19
2018-06-01T16:47:25.637Z,99571.17
2018-06-01T16:49:55.719Z,99556.31
2018-06-01T16:52:26.621Z,99555.39
2018-06-01T16:54:57.826Z,99558.84
2018-06-01T16:57:28.622Z,99567.98
2018-06-01T17:00:00.153Z,99564.39
2018-06-01T17:02:30.832Z,99560.80
2018-06-01T17:05:01.787Z,99570.02
2018-06-01T17:07:33.128Z,99578.00
2018-06-01T17:10:04.604Z,99573.33
2018-06-01T17:12:36.509Z,99574.67
2018-06-01T17:15:07.692Z,99570.38
2018-06-01T17:17:39.439Z,99572.27
2018-06-01T17:20:07.170Z,99574.16
2018-06-01T17:22:34.720Z,99587.77
2018-06-01T17:25:02.347Z,99587.52
2018-06-01T17:27:29.878Z,99588.37
2018-06-01T17:29:57.858Z,99574.81
2018-06-01T17:32:25.459Z,99580.57
2018-06-01T17:34:53.286Z,99577.52
2018-06-01T17:37:20.886Z,99575.63
2018-06-01T17:39:48.438Z,99582.68
2018-06-01T17:42:15.966Z,99582.48
2018-06-01T17:44:43.506Z,99585.30
2018-06-01T17:47:11.022Z,99589.42
2018-06-01T17:49:38.644Z,99589.57
2018-06-01T17:52:06.176Z,99583.85
2018-06-01T17:54:34.229Z,99584.22
2018-06-01T17:57:01.754Z,99582.91
2018-06-01T17:59:29.495Z,99591.16
2018-06-01T18:01:57.035Z,99585.17
2018-06-01T18:04:24.611Z,99597.15
2018-06-01T18:06:52.367Z,99604.22
2018-06-01T18:09:19.890Z,99603.73
2018-06-01T18:11:47.444Z,99605.36
2018-06-01T18:14:14.993Z,99603.31
2018-06-01T18:16:42.515Z,99606.80
2018-06-01T18:19:10.151Z,99608.93
2018-06-01T18:21:37.739Z,99608.78
2018-06-01T18:24:05.322Z,99609.05
2018-06-01T18:26:32.907Z,99612.77
2018-06-01T18:29:00.550Z,99613.57
2018-06-01T18:31:28.075Z,99614.48
2018-06-01T18:33:56.409Z,99623.22
2018-06-01T18:36:24.935Z,99622.95
2018-06-01T18:38:52.594Z,99622.14
2018-06-01T18:41:20.169Z,99626.02
2018-06-01T18:43:47.721Z,99627.69
2018-06-01T18:46:15.297Z,99619.25
2018-06-01T18:48:42.824Z,99625.17
2018-06-01T18:51:10.376Z,99633.20
2018-06-01T18:53:39.227Z,99627.40
2018-06-01T18:56:06.874Z,99636.46
2018-06-01T18:58:34.406Z,99638.84
2018-06-01T19:01:02.353Z,99638.28
2018-06-01T19:03:30.700Z,99636.84
2018-06-01T19:05:59.051Z,99647.07
2018-06-01T19:08:26.637Z,99648.59
2018-06-01T19:10:54.219Z,99647.43
2018-06-01T19:13:21.745Z,99650.77
2018-06-01T19:15:49.285Z,99647.47
2018-06-01T19:18:16.826Z,99655.61
2018-06-01T19:20:44.402Z,99650.23
2018-06-01T19:23:12.674Z,99655.69
2018-06-01T19:25:40.235Z,99659.61
2018-06-01T19:28:07.778Z,99661.85
2018-06-01T19:30:35.379Z,99661.36
2018-06-01T19:33:02.912Z,99664.00
2018-06-01T19:35:30.465Z,99662.94
2018-06-01T19:37:59.211Z,99666.74
2018-06-01T19:40:26.845Z,99673.33
2018-06-01T19:42:54.370Z,99668.77
2018-06-01T19:45:22.026Z,99674.67
2018-06-01T19:47:49.584Z,99678.88
2018-06-01T19:50:17.154Z,99679.52
2018-06-01T19:52:44.703Z,99677.03
2018-06-01T19:55:12.301Z,99666.73
2018-06-01T19:57:39.934Z,99669.72
2018-06-01T20:00:07.492Z,99668.25
2018-06-01T20:02:35.057Z,99668.81
2018-06-01T20:05:02.609Z,99666.30
2018-06-01T20:07:30.288Z,99650.98
2018-06-01T20:09:57.794Z,99664.16
2018-06-01T20:12:25.354Z,99668.97
2018-06-01T20:14:52.873Z,99674.38
2018-06-01T20:17:20.512Z,99668.73
2018-06-01T20:19:51.813Z,99674.91
2018-06-01T20:22:19.619Z,99670.15
2018-06-01T20:24:47.159Z,99675.42
2018-06-01T20:27:14.737Z,99673.97
2018-06-01T20:29:42.412Z,99663.56
2018-06-01T20:32:09.967Z,99673.49
2018-06-01T20:34:37.517Z,99669.78
2018-06-01T20:37:05.075Z,99672.50
2018-06-01T20:39:34.320Z,99677.73
2018-06-01T20:42:01.938Z,99685.58
2018-06-01T20:44:30.216Z,99683.42
2018-06-01T20:46:57.880Z,99681.41
2018-06-01T20:49:25.431Z,99687.07
2018-06-01T20:51:52.999Z,99682.20
2018-06-01T20:54:20.533Z,99686.36
2018-06-01T20:56:48.108Z,99680.14
2018-06-01T20:59:15.637Z,99677.45
2018-06-01T21:01:43.241Z,99680.13
2018-06-01T21:04:10.770Z,99675.75
2018-06-01T21:06:38.321Z,99682.00
2018-06-01T21:09:05.866Z,99680.70
2018-06-01T21:11:33.418Z,99682.80
2018-06-01T21:14:01.025Z,99681.27
2018-06-01T21:16:28.604Z,99686.69
2018-06-01T21:18:56.132Z,99689.06
2018-06-01T21:21:23.763Z,99688.05
2018-06-01T21:23:51.366Z,99686.38
2018-06-01T21:26:18.925Z,99684.95
2018-06-01T21:28:46.489Z,99683.91
2018-06-01T21:31:14.020Z,99681.44
2018-06-01T21:33:41.593Z,99688.11
2018-06-01T21:36:09.174Z,99692.18
2018-06-01T21:38:36.719Z,99695.95
2018-06-01T21:41:04.281Z,99702.75
2018-06-01T21:43:31.943Z,99701.21
2018-06-01T21:46:00.479Z,99704.86
2018-06-01T21:48:28.086Z,99703.62
2018-06-01T21:50:55.609Z,99706.60
2018-06-01T21:53:23.157Z,99704.48
2018-06-01T21:55:50.763Z,99701.17
2018-06-01T21:58:18.313Z,99708.55
2018-06-01T22:00:45.894Z,99703.46
2018-06-01T22:03:13.470Z,99702.06
2018-06-01T22:05:40.989Z,99695.81
2018-06-01T22:08:08.574Z,99701.83
2018-06-01T22:10:36.096Z,99704.80
2018-06-01T22:13:03.679Z,99700.84
2018-06-01T22:15:31.204Z,99697.77
2018-06-01T22:17:58.745Z,99703.44
2018-06-01T22:20:26.254Z,99704.23
2018-06-01T22:22:53.814Z,99705.45
2018-06-01T22:25:21.337Z,99703.34
2018-06-01T22:27:48.910Z,99701.98
2018-06-01T22:30:16.495Z,99694.33
2018-06-01T22:32:44.048Z,99682.70
2018-06-01T22:35:13.469Z,99687.47
2018-06-01T22:37:41.023Z,99689.37
2018-06-01T22:40:08.676Z,99693.84
2018-06-01T22:42:36.249Z,99686.27
2018-06-01T22:45:03.801Z,99688.48
2018-06-01T22:47:31.458Z,99693.02
2018-06-01T22:49:59.029Z,99691.87
2018-06-01T22:52:26.608Z,99690.32
2018-06-01T22:54:54.141Z,99688.03
2018-06-01T22:57:21.706Z,99697.89
2018-06-01T22:59:49.269Z,99698.78
2018-06-01T23:02:16.793Z,99690.14
2018-06-01T23:04:44.347Z,99700.96
2018-06-01T23:07:11.872Z,99701.45
2018-06-01T23:09:39.502Z,99695.26
2018-06-01T23:12:07.053Z,99693.19
2018-06-01T23:14:34.634Z,99694.34
2018-06-01T23:17:02.170Z,99694.05
2018-06-01T23:19:29.736Z,99687.89
2018-06-01T23:21:57.290Z,99688.80
2018-06-01T23:24:24.863Z,99686.28
2018-06-01T23:26:52.389Z,99683.30
2018-06-01T23:29:19.968Z,99693.21
2018-06-01T23:31:47.532Z,99685.50
2018-06-01T23:34:15.097Z,99679.16
2018-06-01T23:36:42.648Z,99691.40
2018-06-01T23:39:10.422Z,99687.42
2018-06-01T23:41:37.981Z,99687.15
2018-06-01T23:44:05.532Z,99688.04
2018-06-01T23:46:33.057Z,99683.86
2018-06-01T23:49:01.238Z,99688.73
2018-06-01T23:51:28.787Z,99693.45
2018-06-01T23:53:56.339Z,99694.02
2018-06-01T23:56:23.892Z,99685.45
2018-06-01T23:58:51.445Z,99693.80
